sensor_id;sensor_type;location;lat;lon;timestamp;P1;durP1;ratioP1;P2;durP2;ratioP2
10088;SDS011;51898;49.864;8.550;2023-04-07T00:00:40;28.27;;;17.10;;
10088;SDS011;51898;49.864;8.550;2023-04-07T00:03:42;29.40;;;16.63;;
10088;SDS011;51898;49.864;8.550;2023-04-07T00:06:44;26.70;;;17.00;;
10088;SDS011;51898;49.864;8.550;2023-04-07T00:09:46;24.00;;;15.70;;
10088;SDS011;51898;49.864;8.550;2023-04-07T00:12:47;23.13;;;15.93;;
10088;SDS011;51898;49.864;8.550;2023-04-07T00:15:49;25.47;;;16.37;;
10088;SDS011;51898;49.864;8.550;2023-04-07T00:18:50;26.10;;;16.00;;
10088;SDS011;51898;49.864;8.550;2023-04-07T00:21:52;21.97;;;14.57;;
10088;SDS011;51898;49.864;8.550;2023-04-07T00:24:54;23.07;;;15.10;;
10088;SDS011;51898;49.864;8.550;2023-04-07T00:27:56;23.47;;;15.00;;
10088;SDS011;51898;49.864;8.550;2023-04-07T00:30:57;21.97;;;14.57;;
10088;SDS011;51898;49.864;8.550;2023-04-07T00:33:59;24.00;;;14.67;;
10088;SDS011;51898;49.864;8.550;2023-04-07T00:37:00;24.80;;;14.63;;
10088;SDS011;51898;49.864;8.550;2023-04-07T00:40:02;22.90;;;14.70;;
10088;SDS011;51898;49.864;8.550;2023-04-07T00:43:05;24.60;;;14.50;;
10088;SDS011;51898;49.864;8.550;2023-04-07T00:46:06;22.17;;;14.20;;
10088;SDS011;51898;49.864;8.550;2023-04-07T00:49:08;23.40;;;15.00;;
10088;SDS011;51898;49.864;8.550;2023-04-07T00:52:11;21.17;;;14.63;;
10088;SDS011;51898;49.864;8.550;2023-04-07T00:55:14;20.17;;;13.73;;
10088;SDS011;51898;49.864;8.550;2023-04-07T00:58:16;24.37;;;15.33;;
10088;SDS011;51898;49.864;8.550;2023-04-07T01:01:18;21.47;;;15.37;;
10088;SDS011;51898;49.864;8.550;2023-04-07T01:04:43;20.83;;;14.57;;
10088;SDS011;51898;49.864;8.550;2023-04-07T01:07:57;21.60;;;15.40;;
10088;SDS011;51898;49.864;8.550;2023-04-07T01:11:14;24.17;;;13.87;;
10088;SDS011;51898;49.864;8.550;2023-04-07T01:14:31;20.53;;;14.47;;
10088;SDS011;51898;49.864;8.550;2023-04-07T01:17:44;20.07;;;12.83;;
10088;SDS011;51898;49.864;8.550;2023-04-07T01:20:49;26.10;;;15.20;;
10088;SDS011;51898;49.864;8.550;2023-04-07T01:27:24;25.83;;;14.00;;
10088;SDS011;51898;49.864;8.550;2023-04-07T01:30:37;20.47;;;12.70;;
10088;SDS011;51898;49.864;8.550;2023-04-07T01:33:42;20.50;;;14.20;;
10088;SDS011;51898;49.864;8.550;2023-04-07T01:36:46;24.53;;;14.07;;
10088;SDS011;51898;49.864;8.550;2023-04-07T01:39:49;21.80;;;13.77;;
10088;SDS011;51898;49.864;8.550;2023-04-07T01:42:51;22.27;;;14.23;;
10088;SDS011;51898;49.864;8.550;2023-04-07T01:45:54;23.30;;;13.80;;
10088;SDS011;51898;49.864;8.550;2023-04-07T01:48:57;21.40;;;14.27;;
10088;SDS011;51898;49.864;8.550;2023-04-07T01:51:59;17.80;;;13.03;;
10088;SDS011;51898;49.864;8.550;2023-04-07T01:55:05;24.57;;;14.53;;
10088;SDS011;51898;49.864;8.550;2023-04-07T01:58:07;20.30;;;13.10;;
10088;SDS011;51898;49.864;8.550;2023-04-07T02:01:09;20.70;;;12.83;;
10088;SDS011;51898;49.864;8.550;2023-04-07T02:04:24;18.50;;;12.57;;
10088;SDS011;51898;49.864;8.550;2023-04-07T02:11:01;19.87;;;13.20;;
10088;SDS011;51898;49.864;8.550;2023-04-07T02:14:05;18.57;;;12.80;;
10088;SDS011;51898;49.864;8.550;2023-04-07T02:17:09;17.00;;;12.57;;
10088;SDS011;51898;49.864;8.550;2023-04-07T02:20:11;18.93;;;12.27;;
10088;SDS011;51898;49.864;8.550;2023-04-07T02:23:15;17.87;;;12.63;;
10088;SDS011;51898;49.864;8.550;2023-04-07T02:26:17;20.40;;;12.73;;
10088;SDS011;51898;49.864;8.550;2023-04-07T02:29:19;19.53;;;13.43;;
10088;SDS011;51898;49.864;8.550;2023-04-07T02:32:21;18.87;;;12.40;;
10088;SDS011;51898;49.864;8.550;2023-04-07T02:35:22;20.53;;;13.80;;
10088;SDS011;51898;49.864;8.550;2023-04-07T02:38:24;15.47;;;11.80;;
10088;SDS011;51898;49.864;8.550;2023-04-07T02:41:26;20.97;;;13.70;;
10088;SDS011;51898;49.864;8.550;2023-04-07T02:44:27;19.83;;;13.80;;
10088;SDS011;51898;49.864;8.550;2023-04-07T02:47:29;18.87;;;12.53;;
10088;SDS011;51898;49.864;8.550;2023-04-07T02:50:30;17.90;;;11.53;;
10088;SDS011;51898;49.864;8.550;2023-04-07T02:53:32;16.80;;;11.80;;
10088;SDS011;51898;49.864;8.550;2023-04-07T02:56:34;17.10;;;11.60;;
10088;SDS011;51898;49.864;8.550;2023-04-07T02:59:35;20.90;;;12.27;;
10088;SDS011;51898;49.864;8.550;2023-04-07T03:02:37;15.70;;;10.97;;
10088;SDS011;51898;49.864;8.550;2023-04-07T03:05:39;18.33;;;12.53;;
10088;SDS011;51898;49.864;8.550;2023-04-07T03:08:40;15.70;;;11.40;;
10088;SDS011;51898;49.864;8.550;2023-04-07T03:11:42;15.73;;;11.47;;
10088;SDS011;51898;49.864;8.550;2023-04-07T03:14:44;20.20;;;12.30;;
10088;SDS011;51898;49.864;8.550;2023-04-07T03:17:45;15.83;;;10.53;;
10088;SDS011;51898;49.864;8.550;2023-04-07T03:20:47;16.40;;;10.63;;
10088;SDS011;51898;49.864;8.550;2023-04-07T03:23:49;14.83;;;11.20;;
10088;SDS011;51898;49.864;8.550;2023-04-07T03:26:51;16.90;;;11.50;;
10088;SDS011;51898;49.864;8.550;2023-04-07T03:29:52;13.70;;;10.17;;
10088;SDS011;51898;49.864;8.550;2023-04-07T03:32:54;14.30;;;10.73;;
10088;SDS011;51898;49.864;8.550;2023-04-07T03:35:56;19.30;;;11.57;;
10088;SDS011;51898;49.864;8.550;2023-04-07T03:38:57;14.90;;;11.30;;
10088;SDS011;51898;49.864;8.550;2023-04-07T03:41:59;15.93;;;10.90;;
10088;SDS011;51898;49.864;8.550;2023-04-07T03:45:01;15.77;;;11.10;;
10088;SDS011;51898;49.864;8.550;2023-04-07T03:48:03;14.90;;;10.13;;
10088;SDS011;51898;49.864;8.550;2023-04-07T03:51:05;15.50;;;10.60;;
10088;SDS011;51898;49.864;8.550;2023-04-07T03:54:07;15.70;;;11.03;;
10088;SDS011;51898;49.864;8.550;2023-04-07T03:57:09;18.30;;;12.43;;
10088;SDS011;51898;49.864;8.550;2023-04-07T04:00:11;15.93;;;11.33;;
10088;SDS011;51898;49.864;8.550;2023-04-07T04:03:13;15.20;;;9.90;;
10088;SDS011;51898;49.864;8.550;2023-04-07T04:06:15;15.43;;;11.07;;
10088;SDS011;51898;49.864;8.550;2023-04-07T04:09:17;16.93;;;11.20;;
10088;SDS011;51898;49.864;8.550;2023-04-07T04:12:19;16.90;;;11.20;;
10088;SDS011;51898;49.864;8.550;2023-04-07T04:15:20;16.47;;;11.73;;
10088;SDS011;51898;49.864;8.550;2023-04-07T04:18:22;14.97;;;10.63;;
10088;SDS011;51898;49.864;8.550;2023-04-07T04:21:23;16.50;;;10.60;;
10088;SDS011;51898;49.864;8.550;2023-04-07T04:24:27;14.77;;;10.50;;
10088;SDS011;51898;49.864;8.550;2023-04-07T04:27:28;16.33;;;11.10;;
10088;SDS011;51898;49.864;8.550;2023-04-07T04:30:30;16.00;;;11.40;;
10088;SDS011;51898;49.864;8.550;2023-04-07T04:33:32;17.63;;;11.10;;
10088;SDS011;51898;49.864;8.550;2023-04-07T04:36:33;22.70;;;11.30;;
10088;SDS011;51898;49.864;8.550;2023-04-07T04:39:38;19.70;;;11.90;;
10088;SDS011;51898;49.864;8.550;2023-04-07T04:42:40;15.53;;;10.77;;
10088;SDS011;51898;49.864;8.550;2023-04-07T04:45:42;18.33;;;11.23;;
10088;SDS011;51898;49.864;8.550;2023-04-07T04:48:43;16.00;;;11.53;;
10088;SDS011;51898;49.864;8.550;2023-04-07T04:51:45;19.80;;;11.50;;
10088;SDS011;51898;49.864;8.550;2023-04-07T04:54:46;16.57;;;11.17;;
10088;SDS011;51898;49.864;8.550;2023-04-07T04:57:48;16.97;;;12.20;;
10088;SDS011;51898;49.864;8.550;2023-04-07T05:00:52;14.53;;;10.83;;
10088;SDS011;51898;49.864;8.550;2023-04-07T05:03:58;15.83;;;11.60;;
10088;SDS011;51898;49.864;8.550;2023-04-07T05:07:00;20.40;;;13.10;;
10088;SDS011;51898;49.864;8.550;2023-04-07T05:10:02;19.90;;;12.73;;
10088;SDS011;51898;49.864;8.550;2023-04-07T05:13:03;17.33;;;11.00;;
10088;SDS011;51898;49.864;8.550;2023-04-07T05:16:05;18.57;;;12.20;;
10088;SDS011;51898;49.864;8.550;2023-04-07T05:19:07;15.07;;;11.63;;
10088;SDS011;51898;49.864;8.550;2023-04-07T05:22:09;18.50;;;12.43;;
10088;SDS011;51898;49.864;8.550;2023-04-07T05:25:10;19.73;;;13.77;;
10088;SDS011;51898;49.864;8.550;2023-04-07T05:28:12;19.10;;;12.63;;
10088;SDS011;51898;49.864;8.550;2023-04-07T05:31:14;21.37;;;14.60;;
10088;SDS011;51898;49.864;8.550;2023-04-07T05:34:15;18.80;;;12.50;;
10088;SDS011;51898;49.864;8.550;2023-04-07T05:37:17;19.17;;;12.90;;
10088;SDS011;51898;49.864;8.550;2023-04-07T05:40:19;22.30;;;13.57;;
10088;SDS011;51898;49.864;8.550;2023-04-07T05:43:20;18.70;;;13.20;;
10088;SDS011;51898;49.864;8.550;2023-04-07T05:46:22;19.80;;;13.60;;
10088;SDS011;51898;49.864;8.550;2023-04-07T05:49:24;17.13;;;12.50;;
10088;SDS011;51898;49.864;8.550;2023-04-07T05:52:25;20.13;;;12.70;;
10088;SDS011;51898;49.864;8.550;2023-04-07T05:55:27;18.13;;;12.87;;
10088;SDS011;51898;49.864;8.550;2023-04-07T05:58:28;17.33;;;12.43;;
10088;SDS011;51898;49.864;8.550;2023-04-07T06:01:30;19.70;;;14.07;;
10088;SDS011;51898;49.864;8.550;2023-04-07T06:04:32;21.40;;;14.13;;
10088;SDS011;51898;49.864;8.550;2023-04-07T06:07:35;18.80;;;13.27;;
10088;SDS011;51898;49.864;8.550;2023-04-07T06:10:37;18.57;;;12.37;;
10088;SDS011;51898;49.864;8.550;2023-04-07T06:13:40;20.53;;;14.23;;
10088;SDS011;51898;49.864;8.550;2023-04-07T06:16:41;21.03;;;13.33;;
10088;SDS011;51898;49.864;8.550;2023-04-07T06:19:43;21.53;;;14.60;;
10088;SDS011;51898;49.864;8.550;2023-04-07T06:22:45;18.43;;;13.60;;
10088;SDS011;51898;49.864;8.550;2023-04-07T06:25:46;21.80;;;13.40;;
10088;SDS011;51898;49.864;8.550;2023-04-07T06:28:52;17.70;;;12.63;;
10088;SDS011;51898;49.864;8.550;2023-04-07T06:31:53;18.97;;;11.60;;
10088;SDS011;51898;49.864;8.550;2023-04-07T06:34:55;19.70;;;12.73;;
10088;SDS011;51898;49.864;8.550;2023-04-07T06:37:57;15.93;;;12.50;;
10088;SDS011;51898;49.864;8.550;2023-04-07T06:40:59;19.50;;;12.30;;
10088;SDS011;51898;49.864;8.550;2023-04-07T06:44:00;15.73;;;11.40;;
10088;SDS011;51898;49.864;8.550;2023-04-07T06:47:02;22.47;;;12.60;;
10088;SDS011;51898;49.864;8.550;2023-04-07T06:50:04;18.70;;;11.73;;
10088;SDS011;51898;49.864;8.550;2023-04-07T06:53:06;15.60;;;11.30;;
10088;SDS011;51898;49.864;8.550;2023-04-07T06:56:08;20.83;;;12.10;;
10088;SDS011;51898;49.864;8.550;2023-04-07T06:59:11;17.07;;;11.60;;
10088;SDS011;51898;49.864;8.550;2023-04-07T07:02:13;16.73;;;11.50;;
10088;SDS011;51898;49.864;8.550;2023-04-07T07:05:15;17.70;;;11.90;;
10088;SDS011;51898;49.864;8.550;2023-04-07T07:08:16;19.10;;;12.30;;
10088;SDS011;51898;49.864;8.550;2023-04-07T07:11:18;16.00;;;12.43;;
10088;SDS011;51898;49.864;8.550;2023-04-07T07:14:20;20.83;;;12.60;;
10088;SDS011;51898;49.864;8.550;2023-04-07T07:17:21;18.43;;;13.00;;
10088;SDS011;51898;49.864;8.550;2023-04-07T07:20:23;15.60;;;11.37;;
10088;SDS011;51898;49.864;8.550;2023-04-07T07:23:26;15.47;;;11.57;;
10088;SDS011;51898;49.864;8.550;2023-04-07T07:26:27;17.10;;;11.60;;
10088;SDS011;51898;49.864;8.550;2023-04-07T07:29:29;20.47;;;13.50;;
10088;SDS011;51898;49.864;8.550;2023-04-07T07:32:31;21.67;;;13.87;;
10088;SDS011;51898;49.864;8.550;2023-04-07T07:35:33;18.83;;;12.87;;
10088;SDS011;51898;49.864;8.550;2023-04-07T07:38:34;18.70;;;14.10;;
10088;SDS011;51898;49.864;8.550;2023-04-07T07:41:38;21.00;;;13.00;;
10088;SDS011;51898;49.864;8.550;2023-04-07T07:44:39;18.70;;;12.23;;
10088;SDS011;51898;49.864;8.550;2023-04-07T07:47:41;19.07;;;12.67;;
10088;SDS011;51898;49.864;8.550;2023-04-07T07:50:43;19.20;;;12.70;;
10088;SDS011;51898;49.864;8.550;2023-04-07T07:53:45;19.23;;;12.70;;
10088;SDS011;51898;49.864;8.550;2023-04-07T07:56:47;18.00;;;11.00;;
10088;SDS011;51898;49.864;8.550;2023-04-07T07:59:49;19.73;;;12.20;;
10088;SDS011;51898;49.864;8.550;2023-04-07T08:02:50;15.03;;;11.63;;
10088;SDS011;51898;49.864;8.550;2023-04-07T08:05:52;19.50;;;12.80;;
10088;SDS011;51898;49.864;8.550;2023-04-07T08:08:54;15.77;;;12.27;;
10088;SDS011;51898;49.864;8.550;2023-04-07T08:11:56;17.67;;;12.50;;
10088;SDS011;51898;49.864;8.550;2023-04-07T08:14:57;19.73;;;12.53;;
10088;SDS011;51898;49.864;8.550;2023-04-07T08:17:59;17.60;;;12.40;;
10088;SDS011;51898;49.864;8.550;2023-04-07T08:21:04;19.90;;;13.30;;
10088;SDS011;51898;49.864;8.550;2023-04-07T08:24:07;20.00;;;12.57;;
10088;SDS011;51898;49.864;8.550;2023-04-07T08:27:09;14.63;;;12.03;;
10088;SDS011;51898;49.864;8.550;2023-04-07T08:30:11;17.77;;;12.40;;
10088;SDS011;51898;49.864;8.550;2023-04-07T08:33:13;16.97;;;12.90;;
10088;SDS011;51898;49.864;8.550;2023-04-07T08:36:14;22.83;;;13.47;;
10088;SDS011;51898;49.864;8.550;2023-04-07T08:39:16;18.60;;;14.57;;
10088;SDS011;51898;49.864;8.550;2023-04-07T08:42:18;24.97;;;15.87;;
10088;SDS011;51898;49.864;8.550;2023-04-07T08:45:22;18.30;;;12.67;;
10088;SDS011;51898;49.864;8.550;2023-04-07T08:48:25;17.10;;;12.37;;
10088;SDS011;51898;49.864;8.550;2023-04-07T08:51:33;15.60;;;12.37;;
10088;SDS011;51898;49.864;8.550;2023-04-07T08:54:37;18.53;;;12.70;;
10088;SDS011;51898;49.864;8.550;2023-04-07T08:57:42;16.30;;;12.53;;
10088;SDS011;51898;49.864;8.550;2023-04-07T09:00:44;17.70;;;12.23;;
10088;SDS011;51898;49.864;8.550;2023-04-07T09:03:46;17.00;;;12.13;;
10088;SDS011;51898;49.864;8.550;2023-04-07T09:06:50;15.17;;;11.20;;
10088;SDS011;51898;49.864;8.550;2023-04-07T09:09:51;15.80;;;12.10;;
10088;SDS011;51898;49.864;8.550;2023-04-07T09:12:53;15.90;;;11.90;;
10088;SDS011;51898;49.864;8.550;2023-04-07T09:15:54;16.90;;;12.43;;
10088;SDS011;51898;49.864;8.550;2023-04-07T09:18:56;15.47;;;11.67;;
10088;SDS011;51898;49.864;8.550;2023-04-07T09:21:58;15.13;;;11.87;;
10088;SDS011;51898;49.864;8.550;2023-04-07T09:25:10;13.90;;;11.17;;
10088;SDS011;51898;49.864;8.550;2023-04-07T09:28:20;15.03;;;11.57;;
10088;SDS011;51898;49.864;8.550;2023-04-07T09:31:22;16.07;;;11.63;;
10088;SDS011;51898;49.864;8.550;2023-04-07T09:34:43;15.63;;;12.43;;
10088;SDS011;51898;49.864;8.550;2023-04-07T09:37:59;16.17;;;11.93;;
10088;SDS011;51898;49.864;8.550;2023-04-07T09:41:10;15.90;;;12.70;;
10088;SDS011;51898;49.864;8.550;2023-04-07T09:44:13;18.87;;;13.23;;
10088;SDS011;51898;49.864;8.550;2023-04-07T09:47:15;19.10;;;12.10;;
10088;SDS011;51898;49.864;8.550;2023-04-07T09:50:31;12.87;;;10.37;;
10088;SDS011;51898;49.864;8.550;2023-04-07T09:53:48;17.63;;;11.17;;
10088;SDS011;51898;49.864;8.550;2023-04-07T09:56:51;11.80;;;10.33;;
10088;SDS011;51898;49.864;8.550;2023-04-07T09:59:53;15.27;;;11.13;;
10088;SDS011;51898;49.864;8.550;2023-04-07T10:02:57;13.60;;;10.80;;
10088;SDS011;51898;49.864;8.550;2023-04-07T10:06:00;13.50;;;10.77;;
10088;SDS011;51898;49.864;8.550;2023-04-07T10:09:02;11.03;;;9.07;;
10088;SDS011;51898;49.864;8.550;2023-04-07T10:12:03;13.90;;;10.00;;
10088;SDS011;51898;49.864;8.550;2023-04-07T10:15:07;16.07;;;10.20;;
10088;SDS011;51898;49.864;8.550;2023-04-07T10:18:12;13.37;;;8.80;;
10088;SDS011;51898;49.864;8.550;2023-04-07T10:21:15;11.00;;;9.53;;
10088;SDS011;51898;49.864;8.550;2023-04-07T10:24:36;10.37;;;9.07;;
10088;SDS011;51898;49.864;8.550;2023-04-07T10:27:58;10.40;;;8.33;;
10088;SDS011;51898;49.864;8.550;2023-04-07T10:31:04;10.97;;;9.83;;
10088;SDS011;51898;49.864;8.550;2023-04-07T10:34:06;11.67;;;9.60;;
10088;SDS011;51898;49.864;8.550;2023-04-07T10:37:11;13.60;;;11.60;;
10088;SDS011;51898;49.864;8.550;2023-04-07T10:40:25;12.07;;;10.20;;
10088;SDS011;51898;49.864;8.550;2023-04-07T10:43:38;14.77;;;11.00;;
10088;SDS011;51898;49.864;8.550;2023-04-07T10:53:13;13.67;;;10.30;;
10088;SDS011;51898;49.864;8.550;2023-04-07T10:56:15;13.30;;;10.07;;
10088;SDS011;51898;49.864;8.550;2023-04-07T10:59:17;14.20;;;10.40;;
10088;SDS011;51898;49.864;8.550;2023-04-07T11:05:24;10.47;;;9.00;;
10088;SDS011;51898;49.864;8.550;2023-04-07T11:08:32;13.37;;;9.80;;
10088;SDS011;51898;49.864;8.550;2023-04-07T11:11:42;10.67;;;9.27;;
10088;SDS011;51898;49.864;8.550;2023-04-07T11:14:45;14.27;;;9.50;;
10088;SDS011;51898;49.864;8.550;2023-04-07T11:18:05;11.23;;;9.43;;
10088;SDS011;51898;49.864;8.550;2023-04-07T11:21:07;8.97;;;6.90;;
10088;SDS011;51898;49.864;8.550;2023-04-07T11:24:09;12.63;;;10.10;;
10088;SDS011;51898;49.864;8.550;2023-04-07T11:27:11;10.77;;;8.97;;
10088;SDS011;51898;49.864;8.550;2023-04-07T11:30:14;10.03;;;9.00;;
10088;SDS011;51898;49.864;8.550;2023-04-07T11:33:22;12.37;;;9.73;;
10088;SDS011;51898;49.864;8.550;2023-04-07T11:36:26;10.80;;;8.90;;
10088;SDS011;51898;49.864;8.550;2023-04-07T11:39:35;15.10;;;11.93;;
10088;SDS011;51898;49.864;8.550;2023-04-07T11:42:38;17.87;;;14.83;;
10088;SDS011;51898;49.864;8.550;2023-04-07T11:45:40;17.23;;;13.90;;
10088;SDS011;51898;49.864;8.550;2023-04-07T11:48:43;16.73;;;13.00;;
10088;SDS011;51898;49.864;8.550;2023-04-07T11:51:45;18.20;;;13.33;;
10088;SDS011;51898;49.864;8.550;2023-04-07T11:54:47;13.83;;;12.17;;
10088;SDS011;51898;49.864;8.550;2023-04-07T11:57:51;23.67;;;18.67;;
10088;SDS011;51898;49.864;8.550;2023-04-07T12:00:54;19.40;;;12.70;;
10088;SDS011;51898;49.864;8.550;2023-04-07T12:03:58;17.17;;;12.77;;
10088;SDS011;51898;49.864;8.550;2023-04-07T12:07:06;18.27;;;13.90;;
10088;SDS011;51898;49.864;8.550;2023-04-07T12:10:22;16.20;;;12.73;;
10088;SDS011;51898;49.864;8.550;2023-04-07T12:13:27;19.90;;;13.80;;
10088;SDS011;51898;49.864;8.550;2023-04-07T12:16:29;18.03;;;14.13;;
10088;SDS011;51898;49.864;8.550;2023-04-07T12:19:31;18.07;;;13.30;;
10088;SDS011;51898;49.864;8.550;2023-04-07T12:22:35;16.27;;;12.70;;
10088;SDS011;51898;49.864;8.550;2023-04-07T12:25:36;16.60;;;12.67;;
10088;SDS011;51898;49.864;8.550;2023-04-07T12:28:38;15.00;;;11.60;;
10088;SDS011;51898;49.864;8.550;2023-04-07T12:31:40;16.47;;;12.57;;
10088;SDS011;51898;49.864;8.550;2023-04-07T12:34:42;14.00;;;11.40;;
10088;SDS011;51898;49.864;8.550;2023-04-07T12:37:44;15.33;;;11.63;;
10088;SDS011;51898;49.864;8.550;2023-04-07T12:40:50;15.80;;;11.90;;
10088;SDS011;51898;49.864;8.550;2023-04-07T12:43:51;15.63;;;12.03;;
10088;SDS011;51898;49.864;8.550;2023-04-07T12:46:53;17.30;;;13.40;;
10088;SDS011;51898;49.864;8.550;2023-04-07T12:49:55;14.57;;;11.00;;
10088;SDS011;51898;49.864;8.550;2023-04-07T12:52:58;14.80;;;12.53;;
10088;SDS011;51898;49.864;8.550;2023-04-07T12:56:01;14.43;;;10.90;;
10088;SDS011;51898;49.864;8.550;2023-04-07T12:59:03;14.70;;;11.80;;
10088;SDS011;51898;49.864;8.550;2023-04-07T13:02:05;13.70;;;10.23;;
10088;SDS011;51898;49.864;8.550;2023-04-07T13:05:07;11.33;;;9.33;;
10088;SDS011;51898;49.864;8.550;2023-04-07T13:08:09;13.70;;;10.57;;
10088;SDS011;51898;49.864;8.550;2023-04-07T13:11:11;11.77;;;9.33;;
10088;SDS011;51898;49.864;8.550;2023-04-07T13:14:12;11.13;;;8.50;;
10088;SDS011;51898;49.864;8.550;2023-04-07T13:17:14;11.03;;;9.30;;
10088;SDS011;51898;49.864;8.550;2023-04-07T13:20:17;12.87;;;10.17;;
10088;SDS011;51898;49.864;8.550;2023-04-07T13:23:21;14.57;;;10.10;;
10088;SDS011;51898;49.864;8.550;2023-04-07T13:26:23;17.00;;;11.30;;
10088;SDS011;51898;49.864;8.550;2023-04-07T13:29:24;19.23;;;10.43;;
10088;SDS011;51898;49.864;8.550;2023-04-07T13:32:26;12.10;;;10.07;;
10088;SDS011;51898;49.864;8.550;2023-04-07T13:35:28;12.37;;;9.77;;
10088;SDS011;51898;49.864;8.550;2023-04-07T13:38:35;10.70;;;9.03;;
10088;SDS011;51898;49.864;8.550;2023-04-07T13:41:37;10.53;;;8.77;;
10088;SDS011;51898;49.864;8.550;2023-04-07T13:44:38;13.37;;;9.90;;
10088;SDS011;51898;49.864;8.550;2023-04-07T13:47:40;9.73;;;8.30;;
10088;SDS011;51898;49.864;8.550;2023-04-07T13:50:42;8.83;;;6.83;;
10088;SDS011;51898;49.864;8.550;2023-04-07T13:53:44;8.63;;;6.23;;
10088;SDS011;51898;49.864;8.550;2023-04-07T13:56:47;6.40;;;5.70;;
10088;SDS011;51898;49.864;8.550;2023-04-07T13:59:49;8.73;;;6.20;;
10088;SDS011;51898;49.864;8.550;2023-04-07T14:02:54;7.17;;;6.03;;
10088;SDS011;51898;49.864;8.550;2023-04-07T14:05:56;8.77;;;7.23;;
10088;SDS011;51898;49.864;8.550;2023-04-07T14:09:01;9.17;;;7.43;;
10088;SDS011;51898;49.864;8.550;2023-04-07T14:12:03;7.30;;;6.50;;
10088;SDS011;51898;49.864;8.550;2023-04-07T14:15:06;7.10;;;6.13;;
10088;SDS011;51898;49.864;8.550;2023-04-07T14:18:08;10.10;;;6.50;;
10088;SDS011;51898;49.864;8.550;2023-04-07T14:21:10;8.00;;;6.70;;
10088;SDS011;51898;49.864;8.550;2023-04-07T14:24:12;7.13;;;6.10;;
10088;SDS011;51898;49.864;8.550;2023-04-07T14:27:14;6.43;;;5.73;;
10088;SDS011;51898;49.864;8.550;2023-04-07T14:30:20;5.60;;;4.97;;
10088;SDS011;51898;49.864;8.550;2023-04-07T14:33:22;6.90;;;5.50;;
10088;SDS011;51898;49.864;8.550;2023-04-07T14:36:24;4.23;;;3.83;;
10088;SDS011;51898;49.864;8.550;2023-04-07T14:39:26;6.83;;;4.83;;
10088;SDS011;51898;49.864;8.550;2023-04-07T14:42:27;5.43;;;4.40;;
10088;SDS011;51898;49.864;8.550;2023-04-07T14:45:32;6.60;;;5.67;;
10088;SDS011;51898;49.864;8.550;2023-04-07T14:48:35;8.50;;;6.10;;
10088;SDS011;51898;49.864;8.550;2023-04-07T14:51:37;13.73;;;11.03;;
10088;SDS011;51898;49.864;8.550;2023-04-07T14:54:39;7.63;;;5.97;;
10088;SDS011;51898;49.864;8.550;2023-04-07T14:57:41;11.53;;;8.10;;
10088;SDS011;51898;49.864;8.550;2023-04-07T15:00:43;7.17;;;6.03;;
10088;SDS011;51898;49.864;8.550;2023-04-07T15:03:44;9.57;;;6.30;;
10088;SDS011;51898;49.864;8.550;2023-04-07T15:06:47;7.73;;;6.20;;
10088;SDS011;51898;49.864;8.550;2023-04-07T15:09:49;9.00;;;6.60;;
10088;SDS011;51898;49.864;8.550;2023-04-07T15:12:51;5.50;;;5.00;;
10088;SDS011;51898;49.864;8.550;2023-04-07T15:15:53;8.30;;;6.27;;
10088;SDS011;51898;49.864;8.550;2023-04-07T15:18:54;7.00;;;5.93;;
10088;SDS011;51898;49.864;8.550;2023-04-07T15:21:56;6.90;;;6.20;;
10088;SDS011;51898;49.864;8.550;2023-04-07T15:24:58;7.47;;;6.00;;
10088;SDS011;51898;49.864;8.550;2023-04-07T15:27:59;5.87;;;5.37;;
10088;SDS011;51898;49.864;8.550;2023-04-07T15:31:01;5.83;;;5.33;;
10088;SDS011;51898;49.864;8.550;2023-04-07T15:34:03;5.77;;;5.23;;
10088;SDS011;51898;49.864;8.550;2023-04-07T15:37:05;6.43;;;5.83;;
10088;SDS011;51898;49.864;8.550;2023-04-07T15:40:07;8.20;;;5.57;;
10088;SDS011;51898;49.864;8.550;2023-04-07T15:43:09;6.07;;;5.10;;
10088;SDS011;51898;49.864;8.550;2023-04-07T15:46:11;5.53;;;4.83;;
10088;SDS011;51898;49.864;8.550;2023-04-07T15:49:13;6.63;;;5.20;;
10088;SDS011;51898;49.864;8.550;2023-04-07T15:52:25;8.20;;;6.40;;
10088;SDS011;51898;49.864;8.550;2023-04-07T15:55:27;6.90;;;5.27;;
10088;SDS011;51898;49.864;8.550;2023-04-07T15:58:29;6.23;;;5.50;;
10088;SDS011;51898;49.864;8.550;2023-04-07T16:01:32;8.60;;;5.27;;
10088;SDS011;51898;49.864;8.550;2023-04-07T16:04:34;5.30;;;4.83;;
10088;SDS011;51898;49.864;8.550;2023-04-07T16:07:36;5.93;;;5.37;;
10088;SDS011;51898;49.864;8.550;2023-04-07T16:10:37;5.00;;;4.50;;
10088;SDS011;51898;49.864;8.550;2023-04-07T16:13:39;5.20;;;4.77;;
10088;SDS011;51898;49.864;8.550;2023-04-07T16:16:40;5.53;;;5.03;;
10088;SDS011;51898;49.864;8.550;2023-04-07T16:19:44;5.70;;;5.00;;
10088;SDS011;51898;49.864;8.550;2023-04-07T16:22:46;7.50;;;5.10;;
10088;SDS011;51898;49.864;8.550;2023-04-07T16:25:48;5.70;;;5.07;;
10088;SDS011;51898;49.864;8.550;2023-04-07T16:28:50;6.03;;;5.47;;
10088;SDS011;51898;49.864;8.550;2023-04-07T16:31:51;5.53;;;5.00;;
10088;SDS011;51898;49.864;8.550;2023-04-07T16:34:53;5.40;;;4.90;;
10088;SDS011;51898;49.864;8.550;2023-04-07T16:37:55;6.00;;;5.33;;
10088;SDS011;51898;49.864;8.550;2023-04-07T16:41:01;5.13;;;4.63;;
10088;SDS011;51898;49.864;8.550;2023-04-07T16:44:05;5.17;;;4.67;;
10088;SDS011;51898;49.864;8.550;2023-04-07T16:47:06;4.07;;;3.67;;
10088;SDS011;51898;49.864;8.550;2023-04-07T16:50:08;4.70;;;4.30;;
10088;SDS011;51898;49.864;8.550;2023-04-07T16:53:10;3.63;;;3.30;;
10088;SDS011;51898;49.864;8.550;2023-04-07T16:56:19;3.50;;;2.90;;
10088;SDS011;51898;49.864;8.550;2023-04-07T16:59:22;2.97;;;2.73;;
10088;SDS011;51898;49.864;8.550;2023-04-07T17:02:23;3.23;;;2.97;;
10088;SDS011;51898;49.864;8.550;2023-04-07T17:05:27;6.80;;;3.57;;
10088;SDS011;51898;49.864;8.550;2023-04-07T17:08:33;3.33;;;3.03;;
10088;SDS011;51898;49.864;8.550;2023-04-07T17:11:35;3.30;;;2.70;;
10088;SDS011;51898;49.864;8.550;2023-04-07T17:14:37;3.60;;;3.13;;
10088;SDS011;51898;49.864;8.550;2023-04-07T17:17:39;3.17;;;2.90;;
10088;SDS011;51898;49.864;8.550;2023-04-07T17:20:41;2.10;;;2.00;;
10088;SDS011;51898;49.864;8.550;2023-04-07T17:23:42;2.30;;;2.10;;
10088;SDS011;51898;49.864;8.550;2023-04-07T17:26:44;2.10;;;1.90;;
10088;SDS011;51898;49.864;8.550;2023-04-07T17:29:46;2.87;;;2.67;;
10088;SDS011;51898;49.864;8.550;2023-04-07T17:32:48;2.03;;;1.70;;
10088;SDS011;51898;49.864;8.550;2023-04-07T17:35:53;2.13;;;2.03;;
10088;SDS011;51898;49.864;8.550;2023-04-07T17:38:55;2.03;;;1.83;;
10088;SDS011;51898;49.864;8.550;2023-04-07T17:41:57;3.10;;;2.80;;
10088;SDS011;51898;49.864;8.550;2023-04-07T17:44:58;2.60;;;2.40;;
10088;SDS011;51898;49.864;8.550;2023-04-07T17:48:00;3.60;;;3.23;;
10088;SDS011;51898;49.864;8.550;2023-04-07T17:51:03;2.77;;;2.57;;
10088;SDS011;51898;49.864;8.550;2023-04-07T17:54:05;3.63;;;3.27;;
10088;SDS011;51898;49.864;8.550;2023-04-07T17:57:07;3.73;;;3.43;;
10088;SDS011;51898;49.864;8.550;2023-04-07T18:00:09;3.33;;;3.03;;
10088;SDS011;51898;49.864;8.550;2023-04-07T18:03:11;4.80;;;3.80;;
10088;SDS011;51898;49.864;8.550;2023-04-07T18:06:15;3.13;;;2.90;;
10088;SDS011;51898;49.864;8.550;2023-04-07T18:09:17;4.90;;;3.30;;
10088;SDS011;51898;49.864;8.550;2023-04-07T18:12:19;3.03;;;2.73;;
10088;SDS011;51898;49.864;8.550;2023-04-07T18:15:21;4.67;;;2.97;;